createdAt,value
2023-01-22T00:00:08.765Z,91.00
2023-01-22T00:02:36.869Z,91.00
2023-01-22T00:05:04.893Z,90.70
2023-01-22T00:07:31.812Z,90.70
2023-01-22T00:09:59.990Z,90.60
2023-01-22T00:12:27.664Z,90.70
2023-01-22T00:14:54.499Z,90.80
2023-01-22T00:17:21.330Z,90.90
2023-01-22T00:19:48.191Z,91.00
2023-01-22T00:22:14.936Z,91.10
2023-01-22T00:24:41.737Z,91.00
2023-01-22T00:27:08.554Z,91.10
2023-01-22T00:29:35.478Z,91.20
2023-01-22T00:32:02.611Z,91.10
2023-01-22T00:34:30.056Z,91.10
2023-01-22T00:36:56.816Z,91.10
2023-01-22T00:39:23.577Z,90.90
2023-01-22T00:41:50.315Z,90.90
2023-01-22T00:44:17.265Z,90.80
2023-01-22T00:46:44.073Z,90.70
2023-01-22T00:49:12.237Z,90.90
2023-01-22T00:51:39.572Z,91.10
2023-01-22T00:54:08.745Z,91.40
2023-01-22T00:56:35.454Z,91.40
2023-01-22T00:59:02.193Z,91.50
2023-01-22T01:01:29.051Z,91.20
2023-01-22T01:03:55.823Z,91.40
2023-01-22T01:06:22.774Z,91.40
2023-01-22T01:08:50.289Z,91.60
2023-01-22T01:11:25.084Z,91.70
2023-01-22T01:13:53.162Z,91.80
2023-01-22T01:16:23.806Z,91.70
2023-01-22T01:18:50.689Z,91.80
2023-01-22T01:21:19.163Z,92.00
2023-01-22T01:23:46.419Z,92.10
2023-01-22T01:26:16.184Z,91.90
2023-01-22T01:28:45.254Z,91.60
2023-01-22T01:31:15.523Z,91.70
2023-01-22T01:33:42.893Z,91.70
2023-01-22T01:36:40.472Z,91.80
2023-01-22T01:39:09.711Z,91.70
2023-01-22T01:41:36.553Z,91.90
2023-01-22T01:44:11.528Z,92.00
2023-01-22T01:46:46.895Z,91.90
2023-01-22T01:49:26.136Z,91.80
2023-01-22T01:51:56.421Z,91.90
2023-01-22T01:54:23.574Z,92.10
2023-01-22T01:56:55.460Z,92.20
2023-01-22T01:59:23.288Z,91.90
2023-01-22T02:01:54.507Z,91.90
2023-01-22T02:04:22.656Z,91.80
2023-01-22T02:06:49.961Z,91.90
2023-01-22T02:09:17.081Z,91.90
2023-01-22T02:11:44.719Z,91.70
2023-01-22T02:14:19.106Z,91.80
2023-01-22T02:16:46.072Z,91.70
2023-01-22T02:19:12.789Z,91.90
2023-01-22T02:21:44.852Z,91.90
2023-01-22T02:24:16.516Z,92.00
2023-01-22T02:26:45.434Z,91.90
2023-01-22T02:29:14.162Z,92.00
2023-01-22T02:31:42.288Z,91.70
2023-01-22T02:34:10.980Z,91.60
2023-01-22T02:36:39.402Z,91.60
2023-01-22T02:39:07.007Z,91.70
2023-01-22T02:41:33.760Z,91.70
2023-01-22T02:44:00.513Z,91.90
2023-01-22T02:46:27.412Z,91.90
2023-01-22T02:48:55.039Z,91.80
2023-01-22T02:51:21.875Z,91.60
2023-01-22T02:53:48.643Z,91.50
2023-01-22T02:56:15.437Z,91.50
2023-01-22T02:58:42.143Z,91.30
2023-01-22T03:01:20.859Z,91.30
2023-01-22T03:03:55.996Z,91.20
2023-01-22T03:06:23.867Z,91.20
2023-01-22T03:08:56.419Z,90.80
2023-01-22T03:11:24.283Z,91.10
2023-01-22T03:14:10.646Z,91.40
2023-01-22T03:16:56.184Z,91.20
2023-01-22T03:19:42.631Z,91.10
2023-01-22T03:22:10.146Z,91.20
2023-01-22T03:24:36.912Z,91.20
2023-01-22T03:27:04.664Z,91.20
2023-01-22T03:29:31.479Z,91.40
2023-01-22T03:31:58.232Z,91.50
2023-01-22T03:34:26.327Z,91.40
2023-01-22T03:36:53.085Z,91.60
2023-01-22T03:39:19.784Z,91.70
2023-01-22T03:41:46.495Z,91.70
2023-01-22T03:44:14.245Z,91.60
2023-01-22T03:46:41.033Z,91.60
2023-01-22T03:49:08.731Z,91.70
2023-01-22T03:51:35.727Z,91.70
2023-01-22T03:54:02.456Z,91.70
2023-01-22T03:56:31.177Z,91.70
2023-01-22T03:58:58.195Z,91.70
2023-01-22T04:01:27.123Z,91.80
2023-01-22T04:03:54.934Z,91.70
2023-01-22T04:06:22.772Z,91.80
2023-01-22T04:08:51.604Z,91.70
2023-01-22T04:11:18.687Z,91.80
2023-01-22T04:13:45.928Z,91.80
2023-01-22T04:16:13.949Z,91.70
2023-01-22T04:18:41.928Z,91.70
2023-01-22T04:21:09.020Z,91.80
2023-01-22T04:23:35.731Z,91.70
2023-01-22T04:26:02.463Z,91.80
2023-01-22T04:28:29.397Z,91.90
2023-01-22T04:30:56.471Z,91.90
2023-01-22T04:33:23.376Z,91.90
2023-01-22T04:35:52.339Z,91.80
2023-01-22T04:38:19.069Z,91.90
2023-01-22T04:40:45.877Z,91.90
2023-01-22T04:43:12.685Z,91.90
2023-01-22T04:45:39.407Z,92.00
2023-01-22T04:48:08.373Z,92.00
2023-01-22T04:50:35.351Z,92.00
2023-01-22T04:53:02.857Z,92.10
2023-01-22T04:55:30.194Z,92.10
2023-01-22T04:57:58.765Z,92.10
2023-01-22T05:00:26.487Z,92.20
2023-01-22T05:02:57.985Z,92.20
2023-01-22T05:05:25.669Z,92.30
2023-01-22T05:07:52.847Z,92.20
2023-01-22T05:10:20.281Z,92.40
2023-01-22T05:12:49.122Z,92.30
2023-01-22T05:15:24.052Z,92.30
2023-01-22T05:17:52.386Z,92.30
2023-01-22T05:20:19.627Z,92.30
2023-01-22T05:22:46.611Z,92.50
2023-01-22T05:25:13.745Z,92.60
2023-01-22T05:27:40.508Z,92.30
2023-01-22T05:30:08.453Z,92.20
2023-01-22T05:32:35.222Z,92.30
2023-01-22T05:35:02.835Z,92.40
2023-01-22T05:37:31.904Z,92.40
2023-01-22T05:39:58.650Z,92.20
2023-01-22T05:42:25.381Z,92.20
2023-01-22T05:44:52.099Z,92.40
2023-01-22T05:47:18.820Z,92.50
2023-01-22T05:49:45.573Z,92.30
2023-01-22T05:52:12.285Z,92.20
2023-01-22T05:54:39.772Z,92.20
2023-01-22T05:57:06.970Z,91.90
2023-01-22T05:59:33.816Z,92.10
2023-01-22T06:02:00.854Z,92.20
2023-01-22T06:04:28.373Z,92.20
2023-01-22T06:06:55.127Z,92.40
2023-01-22T06:09:21.897Z,92.50
2023-01-22T06:11:48.655Z,92.10
2023-01-22T06:14:15.481Z,91.80
2023-01-22T06:16:42.298Z,91.90
2023-01-22T06:19:09.352Z,92.10
2023-01-22T06:21:36.160Z,92.30
2023-01-22T06:24:02.918Z,92.60
2023-01-22T06:26:29.690Z,92.70
2023-01-22T06:28:56.449Z,92.80
2023-01-22T06:31:23.299Z,92.90
2023-01-22T06:33:50.241Z,92.90
2023-01-22T06:36:17.018Z,92.90
2023-01-22T06:38:43.845Z,92.90
2023-01-22T06:41:11.010Z,92.90
2023-01-22T06:43:37.808Z,92.90
2023-01-22T06:46:05.146Z,93.00
2023-01-22T06:48:32.018Z,92.90
2023-01-22T06:51:00.155Z,92.90
2023-01-22T06:53:27.583Z,93.10
2023-01-22T06:55:54.591Z,92.90
2023-01-22T06:58:21.458Z,93.00
2023-01-22T07:00:48.196Z,93.00
2023-01-22T07:03:15.067Z,93.00
2023-01-22T07:05:42.121Z,93.00
2023-01-22T07:08:14.204Z,93.00
2023-01-22T07:10:41.652Z,93.00
2023-01-22T07:13:10.124Z,93.00
2023-01-22T07:15:36.891Z,93.00
2023-01-22T07:18:03.741Z,93.10
2023-01-22T07:20:30.483Z,93.10
2023-01-22T07:22:59.262Z,93.20
2023-01-22T07:25:27.573Z,93.30
2023-01-22T07:28:01.657Z,93.20
2023-01-22T07:30:29.622Z,93.30
2023-01-22T07:33:00.758Z,93.20
2023-01-22T07:35:28.620Z,93.00
2023-01-22T07:37:57.211Z,92.80
2023-01-22T07:40:24.829Z,92.90
2023-01-22T07:42:52.854Z,92.70
2023-01-22T07:45:20.200Z,92.60
2023-01-22T07:47:58.767Z,92.60
2023-01-22T07:50:29.393Z,92.60
2023-01-22T07:52:56.349Z,92.60
2023-01-22T07:55:23.867Z,92.70
2023-01-22T07:58:01.530Z,92.50
2023-01-22T08:00:28.581Z,92.60
2023-01-22T08:02:55.361Z,92.70
2023-01-22T08:05:22.219Z,92.60
2023-01-22T08:07:49.189Z,92.60
2023-01-22T08:10:17.109Z,92.50
2023-01-22T08:12:46.407Z,92.20
2023-01-22T08:15:14.140Z,92.10
2023-01-22T08:17:41.140Z,92.10
2023-01-22T08:20:09.250Z,92.00
2023-01-22T08:22:36.153Z,92.20
2023-01-22T08:25:02.953Z,92.20
2023-01-22T08:27:30.022Z,92.10
2023-01-22T08:29:56.781Z,92.10
2023-01-22T08:32:23.638Z,92.00
2023-01-22T08:34:54.087Z,92.20
2023-01-22T08:37:21.918Z,92.40
2023-01-22T08:39:48.688Z,92.20
2023-01-22T08:42:15.528Z,91.90
2023-01-22T08:44:42.322Z,91.90
2023-01-22T08:47:10.623Z,91.90
2023-01-22T08:49:37.407Z,91.90
2023-01-22T08:52:04.344Z,91.70
2023-01-22T08:54:31.029Z,91.80
2023-01-22T08:56:57.744Z,91.90
2023-01-22T08:59:24.488Z,91.40
2023-01-22T09:01:51.290Z,91.60
2023-01-22T09:04:19.681Z,91.70
2023-01-22T09:06:46.760Z,91.70
2023-01-22T09:09:13.600Z,91.90
2023-01-22T09:11:40.888Z,91.70
2023-01-22T09:14:09.732Z,91.70
2023-01-22T09:16:36.949Z,91.70
2023-01-22T09:19:04.441Z,91.70
2023-01-22T09:21:33.808Z,91.30
2023-01-22T09:24:00.887Z,91.20
2023-01-22T09:26:27.635Z,91.10
2023-01-22T09:28:54.432Z,90.80
2023-01-22T09:31:21.408Z,90.60
2023-01-22T09:33:48.162Z,90.50
2023-01-22T09:36:16.061Z,90.70
2023-01-22T09:38:44.338Z,90.80
2023-01-22T09:41:32.420Z,90.80
2023-01-22T09:44:10.782Z,90.20
2023-01-22T09:46:51.324Z,90.10
2023-01-22T09:49:25.647Z,90.10
2023-01-22T09:51:59.548Z,90.10
2023-01-22T09:54:29.421Z,90.10
2023-01-22T09:56:58.564Z,90.20
2023-01-22T09:59:50.924Z,90.20
2023-01-22T10:02:43.075Z,90.00
2023-01-22T10:05:20.241Z,89.60
2023-01-22T10:07:52.720Z,90.00
2023-01-22T10:10:22.840Z,90.00
2023-01-22T10:13:11.353Z,89.50
2023-01-22T10:15:38.581Z,90.10
2023-01-22T10:18:16.816Z,90.00
2023-01-22T10:20:43.987Z,89.60
2023-01-22T10:23:19.224Z,89.60
2023-01-22T10:25:46.759Z,89.40
2023-01-22T10:28:15.627Z,89.80
2023-01-22T10:30:47.886Z,89.90
2023-01-22T10:33:23.275Z,89.70
2023-01-22T10:35:52.630Z,89.90
2023-01-22T10:38:27.747Z,90.20
2023-01-22T10:41:02.345Z,89.50
2023-01-22T10:43:38.388Z,89.30
2023-01-22T10:46:13.178Z,89.20
2023-01-22T10:48:40.159Z,89.50
2023-01-22T10:51:20.955Z,89.30
2023-01-22T10:53:53.647Z,88.70
2023-01-22T10:56:31.406Z,88.10
2023-01-22T10:59:00.139Z,88.00
2023-01-22T11:01:36.084Z,88.10
2023-01-22T11:04:23.271Z,88.30
2023-01-22T11:07:11.735Z,88.30
2023-01-22T11:10:20.516Z,88.30
2023-01-22T11:12:53.043Z,88.30
2023-01-22T11:15:40.751Z,88.60
2023-01-22T11:18:08.084Z,88.30
2023-01-22T11:20:54.916Z,88.30
2023-01-22T11:23:35.238Z,88.30
2023-01-22T11:26:16.865Z,88.20
2023-01-22T11:29:05.170Z,88.60
2023-01-22T11:31:52.905Z,88.20
2023-01-22T11:34:39.195Z,87.80
2023-01-22T11:37:32.667Z,88.30
2023-01-22T11:40:28.595Z,88.00
2023-01-22T11:43:27.560Z,87.90
2023-01-22T11:45:54.996Z,87.10
2023-01-22T11:48:33.932Z,87.10
2023-01-22T11:51:22.847Z,87.30
2023-01-22T11:54:24.332Z,87.10
2023-01-22T11:57:32.721Z,87.30
2023-01-22T12:00:34.568Z,87.40
2023-01-22T12:03:20.817Z,86.90
2023-01-22T12:06:12.951Z,86.80
2023-01-22T12:08:51.393Z,86.50
2023-01-22T12:11:33.970Z,86.60
2023-01-22T12:14:35.221Z,85.90
2023-01-22T12:17:08.119Z,86.10
2023-01-22T12:19:51.321Z,85.80
2023-01-22T12:22:45.886Z,85.90
2023-01-22T12:25:31.907Z,85.80
2023-01-22T12:28:29.533Z,86.20
2023-01-22T12:31:10.937Z,86.20
2023-01-22T12:33:41.801Z,86.30
2023-01-22T12:36:13.303Z,86.00
2023-01-22T12:39:12.878Z,86.70
2023-01-22T12:42:20.784Z,86.50
2023-01-22T12:44:57.622Z,86.60
2023-01-22T12:47:48.121Z,86.70
2023-01-22T12:50:24.084Z,87.30
2023-01-22T12:53:21.194Z,87.10
2023-01-22T12:56:02.392Z,87.70
2023-01-22T12:58:32.703Z,87.90
2023-01-22T13:01:11.522Z,87.40
2023-01-22T13:03:40.541Z,87.70
2023-01-22T13:06:34.796Z,87.70
2023-01-22T13:09:02.918Z,87.10
2023-01-22T13:11:35.623Z,87.50
2023-01-22T13:14:21.320Z,87.70
2023-01-22T13:17:03.596Z,87.40
2023-01-22T13:19:39.997Z,87.90
2023-01-22T13:22:11.052Z,87.80
2023-01-22T13:24:51.202Z,87.90
2023-01-22T13:27:36.674Z,87.90
2023-01-22T13:30:27.883Z,87.60
2023-01-22T13:33:15.644Z,87.30
2023-01-22T13:35:47.095Z,87.40
2023-01-22T13:38:35.275Z,87.40
2023-01-22T13:41:10.980Z,87.10
2023-01-22T13:43:39.329Z,87.10
2023-01-22T13:46:06.912Z,87.40
2023-01-22T13:48:33.667Z,87.20
2023-01-22T13:51:07.142Z,87.30
2023-01-22T13:53:42.724Z,87.40
2023-01-22T13:56:21.092Z,87.50
2023-01-22T13:58:49.564Z,87.80
2023-01-22T14:01:29.981Z,88.00
2023-01-22T14:04:01.645Z,88.00
2023-01-22T14:06:29.870Z,88.30
2023-01-22T14:08:57.804Z,88.30
2023-01-22T14:11:24.604Z,88.60
2023-01-22T14:13:53.041Z,88.90
2023-01-22T14:16:20.227Z,88.90
2023-01-22T14:18:47.001Z,89.10
2023-01-22T14:21:14.260Z,89.40
2023-01-22T14:23:42.610Z,89.90
2023-01-22T14:26:09.869Z,89.90
2023-01-22T14:28:37.164Z,90.10
2023-01-22T14:31:04.187Z,90.20
2023-01-22T14:33:33.077Z,90.20
2023-01-22T14:36:00.208Z,90.40
2023-01-22T14:38:28.019Z,90.40
2023-01-22T14:40:55.027Z,90.70
2023-01-22T14:43:21.823Z,90.70
2023-01-22T14:45:48.716Z,91.00
2023-01-22T14:48:19.107Z,91.30
2023-01-22T14:50:46.265Z,91.30
2023-01-22T14:53:14.377Z,91.60
2023-01-22T14:55:42.570Z,91.80
2023-01-22T14:58:10.260Z,92.10
2023-01-22T15:00:37.891Z,92.30
2023-01-22T15:03:05.087Z,92.20
2023-01-22T15:05:34.020Z,92.30
2023-01-22T15:08:02.264Z,92.40
2023-01-22T15:10:29.515Z,92.60
2023-01-22T15:12:56.334Z,92.70
2023-01-22T15:15:26.885Z,92.90
2023-01-22T15:17:54.821Z,93.10
2023-01-22T15:20:21.837Z,93.10
2023-01-22T15:22:49.761Z,93.00
2023-01-22T15:25:16.822Z,93.10
2023-01-22T15:27:44.534Z,93.30
2023-01-22T15:30:13.515Z,93.40
2023-01-22T15:32:41.172Z,93.60
2023-01-22T15:35:08.511Z,93.60
2023-01-22T15:37:36.140Z,93.50
2023-01-22T15:40:04.562Z,93.40
2023-01-22T15:42:32.321Z,93.50
2023-01-22T15:44:59.276Z,93.60
2023-01-22T15:47:26.242Z,93.70
2023-01-22T15:49:52.993Z,93.60
2023-01-22T15:52:20.102Z,93.70
2023-01-22T15:54:46.865Z,93.70
2023-01-22T15:57:14.359Z,93.80
2023-01-22T15:59:42.074Z,93.70
2023-01-22T16:02:12.163Z,93.80
2023-01-22T16:04:38.951Z,93.90
2023-01-22T16:07:05.699Z,93.90
2023-01-22T16:09:32.472Z,93.90
2023-01-22T16:11:59.208Z,94.00
2023-01-22T16:14:28.018Z,94.00
2023-01-22T16:16:55.125Z,94.00
2023-01-22T16:19:22.167Z,94.20
2023-01-22T16:21:49.001Z,94.30
2023-01-22T16:24:15.763Z,94.30
2023-01-22T16:26:42.504Z,94.40
2023-01-22T16:29:10.892Z,94.50
2023-01-22T16:31:38.183Z,94.40
2023-01-22T16:34:14.598Z,94.30
2023-01-22T16:36:43.069Z,94.40
2023-01-22T16:39:20.168Z,94.40
2023-01-22T16:41:48.979Z,94.20
2023-01-22T16:44:18.118Z,94.20
2023-01-22T16:46:47.549Z,94.40
2023-01-22T16:49:20.297Z,94.50
2023-01-22T16:51:49.346Z,94.50
2023-01-22T16:54:29.093Z,94.60
2023-01-22T16:56:57.393Z,94.60
2023-01-22T16:59:26.955Z,94.60
2023-01-22T17:01:55.555Z,94.70
2023-01-22T17:04:22.316Z,94.70
2023-01-22T17:06:51.797Z,94.80
2023-01-22T17:09:21.595Z,94.80
2023-01-22T17:11:50.907Z,94.80
2023-01-22T17:14:19.726Z,94.80
2023-01-22T17:16:46.664Z,94.80
2023-01-22T17:19:13.784Z,94.70
2023-01-22T17:21:41.447Z,94.80
2023-01-22T17:24:12.874Z,94.70
2023-01-22T17:26:42.000Z,94.70
2023-01-22T17:29:09.521Z,94.70
2023-01-22T17:31:36.911Z,94.70
2023-01-22T17:34:04.117Z,94.80
2023-01-22T17:36:31.483Z,94.80
2023-01-22T17:38:58.334Z,94.80
2023-01-22T17:41:26.198Z,94.90
2023-01-22T17:43:55.268Z,94.90
2023-01-22T17:46:25.116Z,94.90
2023-01-22T17:48:52.952Z,94.90
2023-01-22T17:51:26.716Z,94.80
2023-01-22T17:53:55.134Z,94.90
2023-01-22T17:56:24.411Z,94.90
2023-01-22T17:58:54.442Z,95.00
2023-01-22T18:01:27.945Z,94.90
2023-01-22T18:03:59.716Z,94.90
2023-01-22T18:06:28.263Z,94.70
2023-01-22T18:08:55.649Z,94.70
2023-01-22T18:11:27.575Z,94.70
2023-01-22T18:14:01.055Z,94.80
2023-01-22T18:16:31.071Z,94.70
2023-01-22T18:18:59.766Z,94.60
2023-01-22T18:21:27.008Z,94.70
2023-01-22T18:23:53.874Z,94.70
2023-01-22T18:26:23.038Z,94.70
2023-01-22T18:28:50.582Z,94.80
2023-01-22T18:31:22.200Z,94.70
2023-01-22T18:33:51.095Z,94.80
2023-01-22T18:36:32.671Z,94.90
2023-01-22T18:39:01.411Z,94.80
2023-01-22T18:41:28.985Z,94.80
2023-01-22T18:43:58.683Z,94.80
2023-01-22T18:46:28.292Z,94.90
2023-01-22T18:48:58.769Z,95.00
2023-01-22T18:51:28.019Z,95.00
2023-01-22T18:53:55.974Z,95.00
2023-01-22T18:56:22.899Z,95.00
2023-01-22T18:58:53.958Z,95.00
2023-01-22T19:01:26.529Z,95.00
2023-01-22T19:03:59.690Z,95.00
2023-01-22T19:06:29.388Z,95.00
2023-01-22T19:09:02.493Z,95.10
2023-01-22T19:11:35.065Z,95.00
2023-01-22T19:14:05.534Z,94.90
2023-01-22T19:16:33.140Z,94.90
2023-01-22T19:19:07.663Z,94.70
2023-01-22T19:21:34.463Z,94.80
2023-01-22T19:24:02.303Z,94.70
2023-01-22T19:26:32.536Z,94.70
2023-01-22T19:29:08.854Z,94.80
2023-01-22T19:31:38.433Z,94.80
2023-01-22T19:34:06.527Z,94.80
2023-01-22T19:36:38.194Z,94.80
2023-01-22T19:39:25.711Z,94.80
2023-01-22T19:41:52.503Z,94.80
2023-01-22T19:44:19.908Z,94.80
2023-01-22T19:46:47.011Z,94.90
2023-01-22T19:49:15.611Z,94.70
2023-01-22T19:51:42.990Z,94.70
2023-01-22T19:54:10.298Z,94.80
2023-01-22T19:56:38.565Z,94.80
2023-01-22T19:59:08.101Z,94.90
2023-01-22T20:01:36.882Z,94.90
2023-01-22T20:04:23.327Z,95.00
2023-01-22T20:06:54.630Z,94.90
2023-01-22T20:09:22.227Z,94.90
2023-01-22T20:11:53.826Z,95.00
2023-01-22T20:14:43.255Z,95.00
2023-01-22T20:17:30.537Z,95.10
2023-01-22T20:19:57.325Z,95.10
2023-01-22T20:22:24.215Z,95.00
2023-01-22T20:24:51.468Z,94.90
2023-01-22T20:27:18.224Z,94.90
2023-01-22T20:29:45.092Z,94.80
2023-01-22T20:32:12.410Z,94.80
2023-01-22T20:34:41.944Z,94.70
2023-01-22T20:37:08.979Z,94.80
2023-01-22T20:39:37.066Z,94.70
2023-01-22T20:42:04.621Z,94.80
2023-01-22T20:44:34.008Z,94.80
2023-01-22T20:47:01.665Z,94.80
2023-01-22T20:49:29.555Z,94.80
2023-01-22T20:51:57.179Z,94.80
2023-01-22T20:54:24.482Z,94.80
2023-01-22T20:56:52.417Z,94.80
2023-01-22T20:59:19.787Z,94.90
2023-01-22T21:01:47.035Z,94.80
2023-01-22T21:04:15.431Z,94.90
2023-01-22T21:06:42.763Z,95.00
2023-01-22T21:09:10.720Z,95.10
2023-01-22T21:11:39.664Z,95.10
2023-01-22T21:14:07.887Z,95.00
2023-01-22T21:16:37.565Z,95.00
2023-01-22T21:19:08.605Z,95.00
2023-01-22T21:21:36.138Z,95.10
2023-01-22T21:24:03.724Z,95.10
2023-01-22T21:26:32.246Z,95.00
2023-01-22T21:29:05.574Z,95.10
2023-01-22T21:31:32.490Z,95.00
2023-01-22T21:34:04.094Z,95.10
2023-01-22T21:36:35.923Z,95.10
2023-01-22T21:39:05.529Z,95.10
2023-01-22T21:41:33.635Z,95.10
2023-01-22T21:44:19.918Z,95.00
2023-01-22T21:46:47.640Z,95.00
2023-01-22T21:49:25.368Z,95.10
2023-01-22T21:51:55.732Z,95.00
2023-01-22T21:54:34.776Z,95.00
2023-01-22T21:57:02.834Z,95.10
2023-01-22T21:59:29.904Z,95.10
2023-01-22T22:01:57.015Z,95.10
2023-01-22T22:04:26.902Z,95.00
2023-01-22T22:06:54.337Z,95.10
2023-01-22T22:09:24.641Z,95.10
2023-01-22T22:11:54.970Z,95.00
2023-01-22T22:14:22.720Z,95.10
2023-01-22T22:16:50.102Z,95.10
2023-01-22T22:19:18.537Z,95.00
2023-01-22T22:21:45.752Z,95.00
2023-01-22T22:24:12.911Z,94.90
2023-01-22T22:26:40.175Z,95.00
2023-01-22T22:29:08.606Z,95.00
2023-01-22T22:31:36.312Z,95.00
2023-01-22T22:34:03.245Z,95.00
2023-01-22T22:36:31.924Z,95.10
2023-01-22T22:39:00.441Z,95.10
2023-01-22T22:41:31.047Z,95.10
2023-01-22T22:43:58.438Z,95.20
2023-01-22T22:46:29.596Z,95.20
2023-01-22T22:48:59.654Z,95.20
2023-01-22T22:51:30.282Z,95.20
2023-01-22T22:53:59.893Z,95.20
2023-01-22T22:56:28.032Z,95.10
2023-01-22T22:58:55.787Z,95.10
2023-01-22T23:01:25.439Z,95.10
2023-01-22T23:03:53.549Z,95.20
2023-01-22T23:06:26.167Z,95.10
2023-01-22T23:08:55.044Z,95.10
2023-01-22T23:11:28.166Z,95.10
2023-01-22T23:14:01.059Z,95.10
2023-01-22T23:16:30.518Z,95.10
2023-01-22T23:18:59.787Z,95.20
2023-01-22T23:21:28.218Z,95.10
2023-01-22T23:23:55.978Z,95.00
2023-01-22T23:26:28.190Z,95.10
2023-01-22T23:28:57.876Z,95.10
2023-01-22T23:31:26.075Z,95.10
2023-01-22T23:33:54.651Z,95.10
2023-01-22T23:36:22.302Z,95.10
2023-01-22T23:38:49.168Z,95.10
2023-01-22T23:41:17.734Z,95.10
2023-01-22T23:43:44.867Z,95.10
2023-01-22T23:46:14.589Z,95.10
2023-01-22T23:48:41.931Z,95.10
2023-01-22T23:51:10.391Z,95.00
2023-01-22T23:53:42.375Z,95.00
2023-01-22T23:56:12.012Z,95.00
2023-01-22T23:58:38.864Z,94.90
